Terminal Aerodrome Forecast
Issued by NWS Twin Cities, MN

Home | Current Version | Previous Version | Graphics & Text | Print | Product List | Glossary On
Versions: 1 2 3 4 5 6 7 8 9 10 11 12 13 14
000
FTUS43 KMPX 231136
TAFSTC
TAF
KSTC 231136Z 2312/2412 VRB03KT P6SM OVC200
     FM231600 20006KT P6SM -SHRA SCT060 OVC120
     FM232000 16005KT P6SM BKN060 OVC100
     FM240200 11005KT P6SM OVC060=

USA.gov is the U.S. government's official web portal to all federal, state and local government web resources and services.